sensor_id;sensor_type;location;lat;lon;timestamp;pressure;altitude;pressure_sealevel;temperature;humidity
66666;BME280;53566;50.814;20.688;2022-07-29T00:00:03;101906.35;;;13.63;72.58
66666;BME280;53566;50.814;20.688;2022-07-29T00:07:04;101922.3;;;13.59;73.08
66666;BME280;53566;50.814;20.688;2022-07-29T00:14:17;102056.18;;;13.54;73.47
66666;BME280;53566;50.814;20.688;2022-07-29T00:21:02;101989.73;;;13.5;73.14
66666;BME280;53566;50.814;20.688;2022-07-29T00:28:03;102046.62;;;13.44;73.2
66666;BME280;53566;50.814;20.688;2022-07-29T00:42:19;101893.36;;;13.31;73.92
66666;BME280;53566;50.814;20.688;2022-07-29T00:49:15;102067.43;;;13.18;74.00999999999999
66666;BME280;53566;50.814;20.688;2022-07-29T00:56:19;102014.78;;;13.2;74.14999999999999
66666;BME280;53566;50.814;20.688;2022-07-29T01:00:29;102082.72;;;13.069999999999999;74.98
66666;BME280;53566;50.814;20.688;2022-07-29T01:07:07;101892.84;;;13.030000000000001;74.9
66666;BME280;53566;50.814;20.688;2022-07-29T01:14:08;102063.97;;;12.940000000000001;75.11999999999999
66666;BME280;53566;50.814;20.688;2022-07-29T01:35:06;102064.08;;;12.86;75.78
66666;BME280;53566;50.814;20.688;2022-07-29T01:42:38;101949.23;;;12.76;75.5
66666;BME280;53566;50.814;20.688;2022-07-29T01:49:39;101941.91;;;12.64;76.03
66666;BME280;53566;50.814;20.688;2022-07-29T01:56:03;101920.49;;;12.67;76.21000000000001
66666;BME280;53566;50.814;20.688;2022-07-29T02:00:32;101904.53;;;12.569999999999999;76.74
66666;BME280;53566;50.814;20.688;2022-07-29T02:07:38;102062.37;;;12.48;76.67999999999999
66666;BME280;53566;50.814;20.688;2022-07-29T02:14:44;102001.53;;;12.459999999999999;77.03
66666;BME280;53566;50.814;20.688;2022-07-29T02:21:36;102083.26;;;12.32;77.48
66666;BME280;53566;50.814;20.688;2022-07-29T02:28:07;101940.47;;;12.25;77.39
66666;BME280;53566;50.814;20.688;2022-07-29T02:35:24;101987.3;;;12.19;77.83
66666;BME280;53566;50.814;20.688;2022-07-29T02:42:11;101962.88;;;12.08;78.09
66666;BME280;53566;50.814;20.688;2022-07-29T02:49:49;101981.06;;;12.1;77.71
66666;BME280;53566;50.814;20.688;2022-07-29T02:56:40;102053.74;;;12.040000000000001;78.02
66666;BME280;53566;50.814;20.688;2022-07-29T03:00:11;101922.37;;;12.08;78.64999999999999
66666;BME280;53566;50.814;20.688;2022-07-29T03:07:20;102012.96;;;11.95;78.61
66666;BME280;53566;50.814;20.688;2022-07-29T03:14:21;102015.53;;;11.95;78.72
66666;BME280;53566;50.814;20.688;2022-07-29T03:21:19;101987.37;;;11.96;78.72999999999999
66666;BME280;53566;50.814;20.688;2022-07-29T03:28:18;101987.44;;;12.0;79.19
66666;BME280;53566;50.814;20.688;2022-07-29T03:35:22;101883.21;;;11.98;78.82
66666;BME280;53566;50.814;20.688;2022-07-29T03:42:15;101988.65;;;11.92;78.94
66666;BME280;53566;50.814;20.688;2022-07-29T03:49:06;102019.18;;;11.99;79.66
66666;BME280;53566;50.814;20.688;2022-07-29T03:56:09;101898.96;;;12.049999999999999;79.68
66666;BME280;53566;50.814;20.688;2022-07-29T04:00:12;102044.31;;;12.09;79.7
66666;BME280;53566;50.814;20.688;2022-07-29T04:07:03;102016.12;;;12.08;79.01
66666;BME280;53566;50.814;20.688;2022-07-29T04:14:14;101926.68;;;12.239999999999998;79.53
66666;BME280;53566;50.814;20.688;2022-07-29T04:21:02;101911.12;;;12.32;79.75
66666;BME280;53566;50.814;20.688;2022-07-29T04:28:02;102067.58;;;12.62;80.27
66666;BME280;53566;50.814;20.688;2022-07-29T04:35:08;102036.85;;;12.67;79.93
66666;BME280;53566;50.814;20.688;2022-07-29T04:42:06;102028.52;;;12.799999999999999;80.11999999999999
66666;BME280;53566;50.814;20.688;2022-07-29T04:49:03;102072.06;;;13.100000000000001;80.78999999999999
66666;BME280;53566;50.814;20.688;2022-07-29T04:56:17;102037.94;;;13.32;80.54
66666;BME280;53566;50.814;20.688;2022-07-29T05:00:03;102019.47;;;13.43;80.69999999999999
66666;BME280;53566;50.814;20.688;2022-07-29T05:07:15;101926.93;;;13.72;81.26
66666;BME280;53566;50.814;20.688;2022-07-29T05:14:05;101937.47;;;14.120000000000001;81.29
66666;BME280;53566;50.814;20.688;2022-07-29T05:21:05;102018.13;;;14.43;81.29
66666;BME280;53566;50.814;20.688;2022-07-29T05:28:02;101939.36;;;15.34;80.19
66666;BME280;53566;50.814;20.688;2022-07-29T05:35:12;101917.57;;;15.77;80.13
66666;BME280;53566;50.814;20.688;2022-07-29T05:42:20;101893.08;;;16.279999999999998;79.59
66666;BME280;53566;50.814;20.688;2022-07-29T05:49:03;101901.06;;;17.2;78.69
66666;BME280;53566;50.814;20.688;2022-07-29T05:56:17;101940.47;;;17.72;78.76
66666;BME280;53566;50.814;20.688;2022-07-29T06:00:07;101933.27;;;18.27;78.26
66666;BME280;53566;50.814;20.688;2022-07-29T06:07:03;101996.92;;;18.619999999999997;78.28999999999999
66666;BME280;53566;50.814;20.688;2022-07-29T06:14:18;101877.66;;;19.18;77.8
66666;BME280;53566;50.814;20.688;2022-07-29T06:21:25;101990.93;;;19.52;77.07
66666;BME280;53566;50.814;20.688;2022-07-29T06:28:02;101891.2;;;19.400000000000002;76.87
66666;BME280;53566;50.814;20.688;2022-07-29T06:35:03;101909.81;;;19.43;76.91
66666;BME280;53566;50.814;20.688;2022-07-29T06:42:07;101879.52;;;19.520000000000003;77.22
66666;BME280;53566;50.814;20.688;2022-07-29T06:49:04;101862.06;;;19.93;76.28
66666;BME280;53566;50.814;20.688;2022-07-29T06:56:10;102022.9;;;20.1;76.22
66666;BME280;53566;50.814;20.688;2022-07-29T07:00:24;101853.63;;;20.15;75.55
66666;BME280;53566;50.814;20.688;2022-07-29T07:07:13;101950.95;;;20.22;75.92
66666;BME280;53566;50.814;20.688;2022-07-29T07:14:16;101976.68;;;20.6;74.77
66666;BME280;53566;50.814;20.688;2022-07-29T07:21:08;101988.84;;;20.86;75.11
66666;BME280;53566;50.814;20.688;2022-07-29T07:28:18;101895.59;;;21.380000000000003;74.29
66666;BME280;53566;50.814;20.688;2022-07-29T07:35:13;101975.49;;;21.46;74.12
66666;BME280;53566;50.814;20.688;2022-07-29T07:42:02;101882.65;;;21.57;73.75
66666;BME280;53566;50.814;20.688;2022-07-29T07:49:20;101873.18;;;21.8;74.12
66666;BME280;53566;50.814;20.688;2022-07-29T07:56:05;102021.51;;;21.919999999999998;73.33999999999999
66666;BME280;53566;50.814;20.688;2022-07-29T08:00:16;102015.72;;;22.139999999999997;73.21000000000001
66666;BME280;53566;50.814;20.688;2022-07-29T08:07:13;101960.05;;;22.37;72.88
66666;BME280;53566;50.814;20.688;2022-07-29T08:14:07;101946.58;;;22.63;72.56
66666;BME280;53566;50.814;20.688;2022-07-29T08:21:18;101992.83;;;22.610000000000003;72.25
66666;BME280;53566;50.814;20.688;2022-07-29T08:28:03;101848.63;;;23.05;71.16
66666;BME280;53566;50.814;20.688;2022-07-29T08:35:14;101847.62;;;23.04;71.17999999999999
66666;BME280;53566;50.814;20.688;2022-07-29T08:42:19;101971.32;;;23.24;70.4
66666;BME280;53566;50.814;20.688;2022-07-29T08:49:02;101969.88;;;23.35;70.18
66666;BME280;53566;50.814;20.688;2022-07-29T08:56:23;101955.11;;;23.4;70.59
66666;BME280;53566;50.814;20.688;2022-07-29T09:00:17;101881.73;;;23.529999999999998;70.03
66666;BME280;53566;50.814;20.688;2022-07-29T09:07:04;102038.05;;;23.71;69.96
66666;BME280;53566;50.814;20.688;2022-07-29T09:14:03;102020.18;;;23.939999999999998;69.75
66666;BME280;53566;50.814;20.688;2022-07-29T09:21:04;101984.09;;;24.04;69.19
66666;BME280;53566;50.814;20.688;2022-07-29T09:28:15;102016.19;;;24.35;69.19
66666;BME280;53566;50.814;20.688;2022-07-29T09:35:32;101970.04;;;24.41;68.97
66666;BME280;53566;50.814;20.688;2022-07-29T09:42:06;101960.56;;;24.53;68.71000000000001
66666;BME280;53566;50.814;20.688;2022-07-29T09:49:26;101963.08;;;24.68;68.52
66666;BME280;53566;50.814;20.688;2022-07-29T09:56:38;101885.88;;;24.82;68.03
66666;BME280;53566;50.814;20.688;2022-07-29T10:00:11;101860.16;;;24.669999999999998;68.41
66666;BME280;53566;50.814;20.688;2022-07-29T10:07:02;101913.98;;;24.990000000000002;68.08
66666;BME280;53566;50.814;20.688;2022-07-29T10:14:16;101963.39;;;25.14;67.11
66666;BME280;53566;50.814;20.688;2022-07-29T10:21:18;101845.76;;;25.15;67.22
66666;BME280;53566;50.814;20.688;2022-07-29T10:28:20;101837.8;;;25.4;66.76
66666;BME280;53566;50.814;20.688;2022-07-29T10:42:29;101920.5;;;25.330000000000002;65.78
66666;BME280;53566;50.814;20.688;2022-07-29T10:50:02;101878.57;;;25.310000000000002;65.5
66666;BME280;53566;50.814;20.688;2022-07-29T10:56:34;101780.49;;;25.400000000000002;65.09
66666;BME280;53566;50.814;20.688;2022-07-29T11:00:38;101922.54;;;25.3;65.03
66666;BME280;53566;50.814;20.688;2022-07-29T11:07:24;101916.4;;;25.34;65.3
66666;BME280;53566;50.814;20.688;2022-07-29T11:14:03;101774.76;;;25.08;65.09
66666;BME280;53566;50.814;20.688;2022-07-29T11:21:43;101762.39;;;25.05;65.29
66666;BME280;53566;50.814;20.688;2022-07-29T11:28:10;101891.47;;;24.849999999999998;65.09
66666;BME280;53566;50.814;20.688;2022-07-29T11:35:36;101756.89;;;24.81;65.05
66666;BME280;53566;50.814;20.688;2022-07-29T11:42:52;101905.63;;;24.82;64.83
66666;BME280;53566;50.814;20.688;2022-07-29T11:49:26;101832.75;;;24.96;64.78
66666;BME280;53566;50.814;20.688;2022-07-29T11:56:30;101914.28;;;25.119999999999997;64.22999999999999
66666;BME280;53566;50.814;20.688;2022-07-29T12:00:01;101843.32;;;25.02;63.99
66666;BME280;53566;50.814;20.688;2022-07-29T12:07:03;101768.88;;;25.11;64.10000000000001
66666;BME280;53566;50.814;20.688;2022-07-29T12:14:05;101830.07;;;25.400000000000002;63.64
66666;BME280;53566;50.814;20.688;2022-07-29T12:21:18;101794.88;;;25.44;63.230000000000004
66666;BME280;53566;50.814;20.688;2022-07-29T12:28:21;101913.9;;;25.48;62.79
66666;BME280;53566;50.814;20.688;2022-07-29T12:35:03;101781.74;;;25.62;62.82
66666;BME280;53566;50.814;20.688;2022-07-29T12:42:18;101898.88;;;25.59;62.400000000000006
66666;BME280;53566;50.814;20.688;2022-07-29T12:49:05;101767.28;;;25.57;62.559999999999995
66666;BME280;53566;50.814;20.688;2022-07-29T12:56:05;101734.8;;;25.58;62.89
66666;BME280;53566;50.814;20.688;2022-07-29T13:00:14;101865.33;;;25.689999999999998;62.559999999999995
66666;BME280;53566;50.814;20.688;2022-07-29T13:07:28;101845.06;;;25.63;62.41
66666;BME280;53566;50.814;20.688;2022-07-29T13:14:03;101872.29;;;25.470000000000002;62.46
66666;BME280;53566;50.814;20.688;2022-07-29T13:21:13;101817.03;;;25.68;62.64
66666;BME280;53566;50.814;20.688;2022-07-29T13:28:06;101762.33;;;25.6;62.94
66666;BME280;53566;50.814;20.688;2022-07-29T13:35:05;101765.5;;;25.52;62.44
66666;BME280;53566;50.814;20.688;2022-07-29T13:42:13;101685.64;;;25.64;62.64
66666;BME280;53566;50.814;20.688;2022-07-29T13:49:02;101672.78;;;25.44;62.37
66666;BME280;53566;50.814;20.688;2022-07-29T13:56:18;101825.51;;;25.560000000000002;62.43
66666;BME280;53566;50.814;20.688;2022-07-29T14:00:04;101716.92;;;25.51;62.470000000000006
66666;BME280;53566;50.814;20.688;2022-07-29T14:07:15;101849.2;;;25.509999999999998;62.84
66666;BME280;53566;50.814;20.688;2022-07-29T14:14:13;101755.49;;;25.51;62.89
66666;BME280;53566;50.814;20.688;2022-07-29T14:21:15;101725.7;;;25.49;62.71
66666;BME280;53566;50.814;20.688;2022-07-29T14:28:04;101822.66;;;25.22;62.19
66666;BME280;53566;50.814;20.688;2022-07-29T14:35:07;101707.9;;;25.05;62.46
66666;BME280;53566;50.814;20.688;2022-07-29T14:42:02;101680.09;;;24.96;62.63
66666;BME280;53566;50.814;20.688;2022-07-29T14:49:03;101660.53;;;24.95;62.199999999999996
66666;BME280;53566;50.814;20.688;2022-07-29T14:56:07;101722.04;;;24.73;62.21
66666;BME280;53566;50.814;20.688;2022-07-29T15:00:05;101698.54;;;24.69;62.13
66666;BME280;53566;50.814;20.688;2022-07-29T15:07:03;101611.71;;;24.58;62.29
66666;BME280;53566;50.814;20.688;2022-07-29T15:14:14;101797.88;;;24.470000000000002;62.01
66666;BME280;53566;50.814;20.688;2022-07-29T15:21:03;101705.19;;;24.57;62.34
66666;BME280;53566;50.814;20.688;2022-07-29T15:28:08;101781.77;;;24.619999999999997;61.98
66666;BME280;53566;50.814;20.688;2022-07-29T15:35:13;101696.46;;;24.470000000000002;61.75
66666;BME280;53566;50.814;20.688;2022-07-29T15:42:13;101590.84;;;24.549999999999997;62.12
66666;BME280;53566;50.814;20.688;2022-07-29T15:49:18;101605.3;;;24.34;62.339999999999996
66666;BME280;53566;50.814;20.688;2022-07-29T15:56:04;101711.14;;;24.47;62.11
66666;BME280;53566;50.814;20.688;2022-07-29T16:00:02;101715.28;;;24.470000000000002;61.91
66666;BME280;53566;50.814;20.688;2022-07-29T16:07:07;101574.46;;;24.369999999999997;61.89
66666;BME280;53566;50.814;20.688;2022-07-29T16:14:03;101703.76;;;24.150000000000002;62.25
66666;BME280;53566;50.814;20.688;2022-07-29T16:21:17;101597.65;;;24.130000000000003;62.62
66666;BME280;53566;50.814;20.688;2022-07-29T16:28:08;101618.96;;;23.95;63.24
66666;BME280;53566;50.814;20.688;2022-07-29T16:35:05;101697.89;;;23.91;63.0
66666;BME280;53566;50.814;20.688;2022-07-29T16:42:03;101569.2;;;24.0;63.04
66666;BME280;53566;50.814;20.688;2022-07-29T16:49:04;101705.7;;;23.810000000000002;63.61
66666;BME280;53566;50.814;20.688;2022-07-29T16:56:05;101625.41;;;23.6;63.980000000000004
66666;BME280;53566;50.814;20.688;2022-07-29T17:00:09;101696.65;;;23.57;64.06
66666;BME280;53566;50.814;20.688;2022-07-29T17:07:16;101723.7;;;23.46;64.11
66666;BME280;53566;50.814;20.688;2022-07-29T17:14:02;101763.61;;;23.43;64.3
66666;BME280;53566;50.814;20.688;2022-07-29T17:21:06;101597.05;;;23.37;64.43
66666;BME280;53566;50.814;20.688;2022-07-29T17:28:16;101640.69;;;23.11;66.05000000000001
66666;BME280;53566;50.814;20.688;2022-07-29T17:42:03;101669.42;;;22.91;66.44000000000001
66666;BME280;53566;50.814;20.688;2022-07-29T17:49:21;101650.74;;;22.61;67.62
66666;BME280;53566;50.814;20.688;2022-07-29T17:56:04;101618.78;;;22.5;67.98
66666;BME280;53566;50.814;20.688;2022-07-29T18:00:20;101591.9;;;22.35;68.58
66666;BME280;53566;50.814;20.688;2022-07-29T18:07:04;101761.5;;;22.19;69.25
66666;BME280;53566;50.814;20.688;2022-07-29T18:14:14;101600.9;;;22.05;70.08
66666;BME280;53566;50.814;20.688;2022-07-29T18:21:07;101756.65;;;22.0;70.15
66666;BME280;53566;50.814;20.688;2022-07-29T18:28:18;101710.64;;;21.9;70.64
66666;BME280;53566;50.814;20.688;2022-07-29T18:35:22;101675.74;;;21.96;70.63
66666;BME280;53566;50.814;20.688;2022-07-29T18:42:16;101648.71;;;21.93;70.0
66666;BME280;53566;50.814;20.688;2022-07-29T18:49:24;101782.2;;;21.58;70.55
66666;BME280;53566;50.814;20.688;2022-07-29T18:56:07;101685.37;;;21.35;70.95
66666;BME280;53566;50.814;20.688;2022-07-29T19:00:10;101740.36;;;21.259999999999998;71.01
66666;BME280;53566;50.814;20.688;2022-07-29T19:07:26;101774.49;;;21.23;71.64999999999999
66666;BME280;53566;50.814;20.688;2022-07-29T19:14:03;101662.65;;;21.06;71.75999999999999
66666;BME280;53566;50.814;20.688;2022-07-29T19:21:02;101703.38;;;20.79;71.86
66666;BME280;53566;50.814;20.688;2022-07-29T19:28:19;101701.99;;;20.330000000000002;72.53
66666;BME280;53566;50.814;20.688;2022-07-29T19:35:37;101708.32;;;20.3;72.71
66666;BME280;53566;50.814;20.688;2022-07-29T19:42:11;101803.13;;;20.48;72.74
66666;BME280;53566;50.814;20.688;2022-07-29T19:49:19;101678.99;;;20.23;72.91
66666;BME280;53566;50.814;20.688;2022-07-29T19:56:17;101637.66;;;20.12;73.4
66666;BME280;53566;50.814;20.688;2022-07-29T20:00:23;101707.52;;;19.95;73.08999999999999
66666;BME280;53566;50.814;20.688;2022-07-29T20:07:18;101717.58;;;19.880000000000003;73.54
66666;BME280;53566;50.814;20.688;2022-07-29T20:14:13;101674.79;;;19.93;73.22999999999999
66666;BME280;53566;50.814;20.688;2022-07-29T20:21:03;101746.53;;;19.85;73.87
66666;BME280;53566;50.814;20.688;2022-07-29T20:28:14;101653.81;;;19.740000000000002;73.75
66666;BME280;53566;50.814;20.688;2022-07-29T20:35:22;101773.13;;;19.72;74.03999999999999
66666;BME280;53566;50.814;20.688;2022-07-29T20:42:03;101760.09;;;19.669999999999998;73.93
66666;BME280;53566;50.814;20.688;2022-07-29T20:49:19;101822.65;;;19.53;74.95
66666;BME280;53566;50.814;20.688;2022-07-29T20:56:15;101732.17;;;19.43;74.67
66666;BME280;53566;50.814;20.688;2022-07-29T21:00:03;101654.49;;;19.5;75.29
66666;BME280;53566;50.814;20.688;2022-07-29T21:07:08;101740.01;;;19.34;75.05
66666;BME280;53566;50.814;20.688;2022-07-29T21:14:26;101627.01;;;19.27;75.74
66666;BME280;53566;50.814;20.688;2022-07-29T21:21:05;101795.71;;;19.29;76.14
66666;BME280;53566;50.814;20.688;2022-07-29T21:35:06;101802.57;;;19.02;77.24
66666;BME280;53566;50.814;20.688;2022-07-29T21:42:20;101736.82;;;19.01;76.96
66666;BME280;53566;50.814;20.688;2022-07-29T21:49:21;101699.2;;;18.919999999999998;76.95
66666;BME280;53566;50.814;20.688;2022-07-29T21:56:01;101644.09;;;18.82;77.75
66666;BME280;53566;50.814;20.688;2022-07-29T22:00:03;101763.53;;;18.72;77.86999999999999
66666;BME280;53566;50.814;20.688;2022-07-29T22:07:13;101710.72;;;18.63;78.60000000000001
66666;BME280;53566;50.814;20.688;2022-07-29T22:14:07;101752.33;;;18.52;79.24
66666;BME280;53566;50.814;20.688;2022-07-29T22:21:17;101752.72;;;18.590000000000003;79.69999999999999
66666;BME280;53566;50.814;20.688;2022-07-29T22:28:05;101737.43;;;18.349999999999998;80.79
66666;BME280;53566;50.814;20.688;2022-07-29T22:35:06;101621.36;;;18.39;81.21
66666;BME280;53566;50.814;20.688;2022-07-29T22:42:16;101766.46;;;18.259999999999998;81.69999999999999
66666;BME280;53566;50.814;20.688;2022-07-29T22:49:02;101695.46;;;18.020000000000003;82.53
66666;BME280;53566;50.814;20.688;2022-07-29T22:56:06;101716.88;;;18.06;82.27
66666;BME280;53566;50.814;20.688;2022-07-29T23:00:04;101604.86;;;18.060000000000002;82.42
66666;BME280;53566;50.814;20.688;2022-07-29T23:07:17;101718.27;;;17.95;83.31
66666;BME280;53566;50.814;20.688;2022-07-29T23:14:03;101655.17;;;17.930000000000003;83.73
66666;BME280;53566;50.814;20.688;2022-07-29T23:21:06;101571.39;;;17.8;83.47
66666;BME280;53566;50.814;20.688;2022-07-29T23:28:19;101725.11;;;17.68;84.28
66666;BME280;53566;50.814;20.688;2022-07-29T23:35:02;101703.93;;;17.61;84.42
66666;BME280;53566;50.814;20.688;2022-07-29T23:42:05;101557.04;;;17.549999999999997;84.64
66666;BME280;53566;50.814;20.688;2022-07-29T23:49:02;101599.24;;;17.4;85.49
66666;BME280;53566;50.814;20.688;2022-07-29T23:56:07;101670.75;;;17.51;85.08
